sensor_id;sensor_type;location;lat;lon;timestamp;P1;durP1;ratioP1;P2;durP2;ratioP2
62457;SDS011;48509;52.122;5.250;2023-03-19T00:00:06;5.8;;;3.4;;
62457;SDS011;48509;52.122;5.250;2023-03-19T00:03:20;4.7;;;3.0;;
62457;SDS011;48509;52.122;5.250;2023-03-19T00:04:56;3.9;;;2.8;;
62457;SDS011;48509;52.122;5.250;2023-03-19T00:06:32;3.6;;;3.1;;
62457;SDS011;48509;52.122;5.250;2023-03-19T00:08:09;3.2;;;2.6;;
62457;SDS011;48509;52.122;5.250;2023-03-19T00:11:22;4.7;;;3.4;;
62457;SDS011;48509;52.122;5.250;2023-03-19T00:12:58;4.41;;;3.1;;
62457;SDS011;48509;52.122;5.250;2023-03-19T00:14:34;3.7;;;3.2;;
62457;SDS011;48509;52.122;5.250;2023-03-19T00:17:46;4.41;;;3.5;;
62457;SDS011;48509;52.122;5.250;2023-03-19T00:19:22;4.2;;;3.2;;
62457;SDS011;48509;52.122;5.250;2023-03-19T00:20:58;5.0;;;3.1;;
62457;SDS011;48509;52.122;5.250;2023-03-19T00:24:11;6.1;;;3.8;;
62457;SDS011;48509;52.122;5.250;2023-03-19T00:25:47;5.8;;;4.0;;
62457;SDS011;48509;52.122;5.250;2023-03-19T00:27:23;6.2;;;4.0;;
62457;SDS011;48509;52.122;5.250;2023-03-19T00:30:36;6.5;;;3.9;;
62457;SDS011;48509;52.122;5.250;2023-03-19T00:32:12;5.0;;;3.7;;
62457;SDS011;48509;52.122;5.250;2023-03-19T00:33:48;5.8;;;3.6;;
62457;SDS011;48509;52.122;5.250;2023-03-19T00:35:26;6.9;;;4.0;;
62457;SDS011;48509;52.122;5.250;2023-03-19T00:38:39;5.5;;;4.0;;
62457;SDS011;48509;52.122;5.250;2023-03-19T00:40:15;5.7;;;3.9;;
62457;SDS011;48509;52.122;5.250;2023-03-19T00:41:52;5.4;;;4.0;;
62457;SDS011;48509;52.122;5.250;2023-03-19T00:45:05;7.7;;;4.41;;
62457;SDS011;48509;52.122;5.250;2023-03-19T00:46:42;6.7;;;4.3;;
62457;SDS011;48509;52.122;5.250;2023-03-19T00:48:19;5.6;;;4.3;;
62457;SDS011;48509;52.122;5.250;2023-03-19T00:49:56;5.7;;;4.0;;
62457;SDS011;48509;52.122;5.250;2023-03-19T00:53:09;6.6;;;4.61;;
62457;SDS011;48509;52.122;5.250;2023-03-19T00:54:45;6.9;;;4.5;;
62457;SDS011;48509;52.122;5.250;2023-03-19T00:56:22;7.0;;;4.8;;
62457;SDS011;48509;52.122;5.250;2023-03-19T00:59:34;6.0;;;4.41;;
62457;SDS011;48509;52.122;5.250;2023-03-19T01:01:13;6.0;;;4.8;;
62457;SDS011;48509;52.122;5.250;2023-03-19T01:02:50;9.4;;;4.61;;
62457;SDS011;48509;52.122;5.250;2023-03-19T01:06:03;7.6;;;4.61;;
62457;SDS011;48509;52.122;5.250;2023-03-19T01:07:41;5.4;;;4.1;;
62457;SDS011;48509;52.122;5.250;2023-03-19T01:09:18;5.6;;;4.3;;
62457;SDS011;48509;52.122;5.250;2023-03-19T01:10:55;6.3;;;5.2;;
62457;SDS011;48509;52.122;5.250;2023-03-19T01:14:15;7.1;;;5.3;;
62457;SDS011;48509;52.122;5.250;2023-03-19T01:15:51;8.1;;;5.7;;
62457;SDS011;48509;52.122;5.250;2023-03-19T01:17:28;6.2;;;5.0;;
62457;SDS011;48509;52.122;5.250;2023-03-19T01:20:40;7.5;;;5.8;;
62457;SDS011;48509;52.122;5.250;2023-03-19T01:22:18;9.4;;;6.6;;
62457;SDS011;48509;52.122;5.250;2023-03-19T01:23:55;7.2;;;5.7;;
62457;SDS011;48509;52.122;5.250;2023-03-19T01:25:31;9.71;;;7.0;;
62457;SDS011;48509;52.122;5.250;2023-03-19T01:28:46;8.4;;;5.8;;
62457;SDS011;48509;52.122;5.250;2023-03-19T01:30:23;10.7;;;6.1;;
62457;SDS011;48509;52.122;5.250;2023-03-19T01:31:59;8.4;;;6.1;;
62457;SDS011;48509;52.122;5.250;2023-03-19T01:35:11;7.7;;;6.3;;
62457;SDS011;48509;52.122;5.250;2023-03-19T01:36:48;9.5;;;7.3;;
62457;SDS011;48509;52.122;5.250;2023-03-19T01:38:25;8.5;;;6.0;;
62457;SDS011;48509;52.122;5.250;2023-03-19T01:41:38;9.21;;;7.0;;
62457;SDS011;48509;52.122;5.250;2023-03-19T01:43:17;7.5;;;6.0;;
62457;SDS011;48509;52.122;5.250;2023-03-19T01:44:55;7.6;;;6.0;;
62457;SDS011;48509;52.122;5.250;2023-03-19T01:46:31;7.7;;;6.6;;
62457;SDS011;48509;52.122;5.250;2023-03-19T01:49:58;9.31;;;6.8;;
62457;SDS011;48509;52.122;5.250;2023-03-19T01:51:36;8.9;;;7.3;;
62457;SDS011;48509;52.122;5.250;2023-03-19T01:53:17;9.6;;;7.2;;
62457;SDS011;48509;52.122;5.250;2023-03-19T01:54:57;9.31;;;7.6;;
62457;SDS011;48509;52.122;5.250;2023-03-19T01:58:16;11.8;;;7.3;;
62457;SDS011;48509;52.122;5.250;2023-03-19T01:59:54;11.4;;;9.1;;
62457;SDS011;48509;52.122;5.250;2023-03-19T02:01:36;7.1;;;6.4;;
62457;SDS011;48509;52.122;5.250;2023-03-19T02:03:20;9.21;;;7.4;;
62457;SDS011;48509;52.122;5.250;2023-03-19T02:06:41;9.71;;;7.6;;
62457;SDS011;48509;52.122;5.250;2023-03-19T02:08:19;9.71;;;8.31;;
62457;SDS011;48509;52.122;5.250;2023-03-19T02:09:58;8.9;;;7.4;;
62457;SDS011;48509;52.122;5.250;2023-03-19T02:11:37;10.6;;;8.0;;
62457;SDS011;48509;52.122;5.250;2023-03-19T02:14:50;12.0;;;7.8;;
62457;SDS011;48509;52.122;5.250;2023-03-19T02:16:27;8.1;;;7.3;;
62457;SDS011;48509;52.122;5.250;2023-03-19T02:18:04;8.9;;;7.4;;
62457;SDS011;48509;52.122;5.250;2023-03-19T02:21:26;10.8;;;7.8;;
62457;SDS011;48509;52.122;5.250;2023-03-19T02:23:06;8.81;;;7.4;;
62457;SDS011;48509;52.122;5.250;2023-03-19T02:24:50;10.21;;;7.9;;
62457;SDS011;48509;52.122;5.250;2023-03-19T02:26:31;10.7;;;8.71;;
62457;SDS011;48509;52.122;5.250;2023-03-19T02:29:46;9.6;;;8.0;;
62457;SDS011;48509;52.122;5.250;2023-03-19T02:31:22;14.4;;;10.0;;
62457;SDS011;48509;52.122;5.250;2023-03-19T02:32:59;10.4;;;9.31;;
62457;SDS011;48509;52.122;5.250;2023-03-19T02:34:37;12.0;;;10.21;;
62457;SDS011;48509;52.122;5.250;2023-03-19T02:37:54;10.9;;;8.5;;
62457;SDS011;48509;52.122;5.250;2023-03-19T02:39:32;10.0;;;8.4;;
62457;SDS011;48509;52.122;5.250;2023-03-19T02:41:13;11.2;;;8.81;;
62457;SDS011;48509;52.122;5.250;2023-03-19T02:44:26;12.0;;;10.0;;
62457;SDS011;48509;52.122;5.250;2023-03-19T02:46:03;12.9;;;9.31;;
62457;SDS011;48509;52.122;5.250;2023-03-19T02:47:44;9.81;;;7.8;;
62457;SDS011;48509;52.122;5.250;2023-03-19T02:49:20;13.8;;;9.71;;
62457;SDS011;48509;52.122;5.250;2023-03-19T02:52:33;9.4;;;7.7;;
62457;SDS011;48509;52.122;5.250;2023-03-19T02:54:10;11.1;;;9.71;;
62457;SDS011;48509;52.122;5.250;2023-03-19T02:55:48;11.4;;;7.9;;
62457;SDS011;48509;52.122;5.250;2023-03-19T02:59:03;10.7;;;9.1;;
62457;SDS011;48509;52.122;5.250;2023-03-19T03:00:39;11.0;;;9.1;;
62457;SDS011;48509;52.122;5.250;2023-03-19T03:02:17;12.5;;;8.71;;
62457;SDS011;48509;52.122;5.250;2023-03-19T03:03:54;12.3;;;10.9;;
62457;SDS011;48509;52.122;5.250;2023-03-19T03:07:08;12.0;;;9.71;;
62457;SDS011;48509;52.122;5.250;2023-03-19T03:08:45;11.5;;;9.6;;
62457;SDS011;48509;52.122;5.250;2023-03-19T03:10:23;10.21;;;8.71;;
62457;SDS011;48509;52.122;5.250;2023-03-19T03:13:36;14.7;;;10.4;;
62457;SDS011;48509;52.122;5.250;2023-03-19T03:15:12;16.7;;;12.6;;
62457;SDS011;48509;52.122;5.250;2023-03-19T03:16:48;14.3;;;12.3;;
62457;SDS011;48509;52.122;5.250;2023-03-19T03:20:01;13.2;;;10.5;;
62457;SDS011;48509;52.122;5.250;2023-03-19T03:21:38;11.2;;;10.0;;
62457;SDS011;48509;52.122;5.250;2023-03-19T03:23:14;10.9;;;9.5;;
62457;SDS011;48509;52.122;5.250;2023-03-19T03:24:50;14.6;;;10.9;;
62457;SDS011;48509;52.122;5.250;2023-03-19T03:28:03;13.7;;;11.9;;
62457;SDS011;48509;52.122;5.250;2023-03-19T03:29:40;12.0;;;10.3;;
62457;SDS011;48509;52.122;5.250;2023-03-19T03:31:16;14.2;;;12.7;;
62457;SDS011;48509;52.122;5.250;2023-03-19T03:34:29;15.6;;;12.8;;
62457;SDS011;48509;52.122;5.250;2023-03-19T03:36:06;14.9;;;11.4;;
62457;SDS011;48509;52.122;5.250;2023-03-19T03:37:42;13.5;;;12.1;;
62457;SDS011;48509;52.122;5.250;2023-03-19T03:40:55;13.1;;;11.1;;
62457;SDS011;48509;52.122;5.250;2023-03-19T03:42:32;14.4;;;12.4;;
62457;SDS011;48509;52.122;5.250;2023-03-19T03:44:09;12.3;;;11.0;;
62457;SDS011;48509;52.122;5.250;2023-03-19T03:45:46;11.1;;;9.9;;
62457;SDS011;48509;52.122;5.250;2023-03-19T03:48:59;18.0;;;15.2;;
62457;SDS011;48509;52.122;5.250;2023-03-19T03:50:36;14.2;;;12.5;;
62457;SDS011;48509;52.122;5.250;2023-03-19T03:52:13;16.2;;;14.2;;
62457;SDS011;48509;52.122;5.250;2023-03-19T03:55:26;15.5;;;13.4;;
62457;SDS011;48509;52.122;5.250;2023-03-19T03:57:03;13.9;;;12.4;;
62457;SDS011;48509;52.122;5.250;2023-03-19T03:58:40;16.4;;;13.0;;
62457;SDS011;48509;52.122;5.250;2023-03-19T04:01:53;16.2;;;14.0;;
62457;SDS011;48509;52.122;5.250;2023-03-19T04:03:29;15.5;;;13.9;;
62457;SDS011;48509;52.122;5.250;2023-03-19T04:05:06;17.3;;;14.1;;
62457;SDS011;48509;52.122;5.250;2023-03-19T04:06:42;16.2;;;14.4;;
62457;SDS011;48509;52.122;5.250;2023-03-19T04:09:56;16.7;;;14.6;;
62457;SDS011;48509;52.122;5.250;2023-03-19T04:11:33;17.3;;;14.2;;
62457;SDS011;48509;52.122;5.250;2023-03-19T04:13:10;17.3;;;14.2;;
62457;SDS011;48509;52.122;5.250;2023-03-19T04:16:23;17.3;;;14.2;;
62457;SDS011;48509;52.122;5.250;2023-03-19T04:18:00;16.4;;;14.8;;
62457;SDS011;48509;52.122;5.250;2023-03-19T04:19:37;19.2;;;14.2;;
62457;SDS011;48509;52.122;5.250;2023-03-19T04:21:14;17.2;;;15.4;;
62457;SDS011;48509;52.122;5.250;2023-03-19T04:24:27;16.2;;;14.5;;
62457;SDS011;48509;52.122;5.250;2023-03-19T04:26:04;17.3;;;15.5;;
62457;SDS011;48509;52.122;5.250;2023-03-19T04:27:41;20.41;;;18.11;;
62457;SDS011;48509;52.122;5.250;2023-03-19T04:30:57;19.3;;;15.6;;
62457;SDS011;48509;52.122;5.250;2023-03-19T04:32:34;19.11;;;16.4;;
62457;SDS011;48509;52.122;5.250;2023-03-19T04:34:11;16.11;;;13.4;;
62457;SDS011;48509;52.122;5.250;2023-03-19T04:37:23;20.5;;;16.8;;
62457;SDS011;48509;52.122;5.250;2023-03-19T04:38:59;15.4;;;13.8;;
62457;SDS011;48509;52.122;5.250;2023-03-19T04:40:35;17.61;;;15.8;;
62457;SDS011;48509;52.122;5.250;2023-03-19T04:42:11;18.61;;;16.7;;
62457;SDS011;48509;52.122;5.250;2023-03-19T04:45:25;19.5;;;17.41;;
62457;SDS011;48509;52.122;5.250;2023-03-19T04:47:02;19.3;;;17.0;;
62457;SDS011;48509;52.122;5.250;2023-03-19T04:48:38;19.7;;;17.2;;
62457;SDS011;48509;52.122;5.250;2023-03-19T04:51:50;18.2;;;16.3;;
62457;SDS011;48509;52.122;5.250;2023-03-19T04:53:26;16.4;;;14.7;;
62457;SDS011;48509;52.122;5.250;2023-03-19T04:55:03;18.41;;;16.4;;
62457;SDS011;48509;52.122;5.250;2023-03-19T04:58:19;28.8;;;18.3;;
62457;SDS011;48509;52.122;5.250;2023-03-19T04:59:57;24.2;;;21.0;;
62457;SDS011;48509;52.122;5.250;2023-03-19T05:01:33;16.9;;;14.8;;
62457;SDS011;48509;52.122;5.250;2023-03-19T05:03:09;21.9;;;19.41;;
62457;SDS011;48509;52.122;5.250;2023-03-19T05:06:21;20.6;;;18.41;;
62457;SDS011;48509;52.122;5.250;2023-03-19T05:07:58;24.2;;;21.7;;
62457;SDS011;48509;52.122;5.250;2023-03-19T05:09:34;24.7;;;22.1;;
62457;SDS011;48509;52.122;5.250;2023-03-19T05:12:47;20.9;;;18.11;;
62457;SDS011;48509;52.122;5.250;2023-03-19T05:14:23;19.11;;;16.7;;
62457;SDS011;48509;52.122;5.250;2023-03-19T05:16:00;25.2;;;22.5;;
62457;SDS011;48509;52.122;5.250;2023-03-19T05:19:13;22.3;;;19.7;;
62457;SDS011;48509;52.122;5.250;2023-03-19T05:20:49;22.7;;;20.3;;
62457;SDS011;48509;52.122;5.250;2023-03-19T05:22:26;20.41;;;17.8;;
62457;SDS011;48509;52.122;5.250;2023-03-19T05:24:03;21.7;;;19.3;;
62457;SDS011;48509;52.122;5.250;2023-03-19T05:27:16;21.8;;;18.7;;
62457;SDS011;48509;52.122;5.250;2023-03-19T05:28:53;19.91;;;17.91;;
62457;SDS011;48509;52.122;5.250;2023-03-19T05:30:30;18.61;;;16.61;;
62457;SDS011;48509;52.122;5.250;2023-03-19T05:33:44;19.41;;;17.41;;
62457;SDS011;48509;52.122;5.250;2023-03-19T05:35:21;22.4;;;20.0;;
62457;SDS011;48509;52.122;5.250;2023-03-19T05:36:57;18.0;;;16.11;;
62457;SDS011;48509;52.122;5.250;2023-03-19T05:40:11;21.0;;;18.41;;
62457;SDS011;48509;52.122;5.250;2023-03-19T05:41:47;30.6;;;25.4;;
62457;SDS011;48509;52.122;5.250;2023-03-19T05:45:01;25.0;;;22.0;;
62457;SDS011;48509;52.122;5.250;2023-03-19T05:48:16;22.7;;;20.3;;
62457;SDS011;48509;52.122;5.250;2023-03-19T05:49:52;26.6;;;22.6;;
62457;SDS011;48509;52.122;5.250;2023-03-19T05:51:28;30.9;;;23.7;;
62457;SDS011;48509;52.122;5.250;2023-03-19T05:54:42;26.4;;;23.5;;
62457;SDS011;48509;52.122;5.250;2023-03-19T05:57:56;38.6;;;32.21;;
62457;SDS011;48509;52.122;5.250;2023-03-19T06:01:09;29.3;;;25.4;;
62457;SDS011;48509;52.122;5.250;2023-03-19T06:02:46;25.9;;;21.5;;
62457;SDS011;48509;52.122;5.250;2023-03-19T06:04:22;32.8;;;25.5;;
62457;SDS011;48509;52.122;5.250;2023-03-19T06:05:59;23.1;;;20.3;;
62457;SDS011;48509;52.122;5.250;2023-03-19T06:09:12;43.6;;;34.71;;
62457;SDS011;48509;52.122;5.250;2023-03-19T06:10:48;49.6;;;39.5;;
62457;SDS011;48509;52.122;5.250;2023-03-19T06:12:27;43.4;;;35.5;;
62457;SDS011;48509;52.122;5.250;2023-03-19T06:15:41;42.3;;;33.3;;
62457;SDS011;48509;52.122;5.250;2023-03-19T06:17:17;44.6;;;34.9;;
62457;SDS011;48509;52.122;5.250;2023-03-19T06:18:54;54.3;;;41.9;;
62457;SDS011;48509;52.122;5.250;2023-03-19T06:22:07;55.2;;;42.5;;
62457;SDS011;48509;52.122;5.250;2023-03-19T06:23:44;46.9;;;36.9;;
62457;SDS011;48509;52.122;5.250;2023-03-19T06:25:20;50.9;;;40.31;;
62457;SDS011;48509;52.122;5.250;2023-03-19T06:26:57;47.4;;;36.6;;
62457;SDS011;48509;52.122;5.250;2023-03-19T06:30:11;47.0;;;37.6;;
62457;SDS011;48509;52.122;5.250;2023-03-19T06:31:48;52.3;;;40.4;;
62457;SDS011;48509;52.122;5.250;2023-03-19T06:35:02;56.2;;;42.6;;
62457;SDS011;48509;52.122;5.250;2023-03-19T06:36:39;58.6;;;44.2;;
62457;SDS011;48509;52.122;5.250;2023-03-19T06:38:16;50.4;;;38.71;;
62457;SDS011;48509;52.122;5.250;2023-03-19T06:39:53;46.1;;;35.81;;
62457;SDS011;48509;52.122;5.250;2023-03-19T06:41:29;58.4;;;42.7;;
62457;SDS011;48509;52.122;5.250;2023-03-19T06:44:42;47.6;;;38.6;;
62457;SDS011;48509;52.122;5.250;2023-03-19T06:46:19;51.0;;;40.71;;
62457;SDS011;48509;52.122;5.250;2023-03-19T06:47:55;52.9;;;41.4;;
62457;SDS011;48509;52.122;5.250;2023-03-19T06:51:08;49.3;;;39.81;;
62457;SDS011;48509;52.122;5.250;2023-03-19T06:52:45;44.7;;;35.4;;
62457;SDS011;48509;52.122;5.250;2023-03-19T06:54:22;41.4;;;34.31;;
62457;SDS011;48509;52.122;5.250;2023-03-19T06:57:35;46.1;;;35.0;;
62457;SDS011;48509;52.122;5.250;2023-03-19T06:59:12;38.4;;;30.8;;
62457;SDS011;48509;52.122;5.250;2023-03-19T07:00:48;37.4;;;31.2;;
62457;SDS011;48509;52.122;5.250;2023-03-19T07:02:25;38.5;;;30.2;;
62457;SDS011;48509;52.122;5.250;2023-03-19T07:05:39;37.6;;;30.9;;
62457;SDS011;48509;52.122;5.250;2023-03-19T07:07:15;37.71;;;30.7;;
62457;SDS011;48509;52.122;5.250;2023-03-19T07:08:53;43.2;;;35.81;;
62457;SDS011;48509;52.122;5.250;2023-03-19T07:12:07;49.6;;;37.4;;
62457;SDS011;48509;52.122;5.250;2023-03-19T07:13:44;41.6;;;32.8;;
62457;SDS011;48509;52.122;5.250;2023-03-19T07:15:21;38.1;;;31.8;;
62457;SDS011;48509;52.122;5.250;2023-03-19T07:18:34;40.81;;;33.9;;
62457;SDS011;48509;52.122;5.250;2023-03-19T07:20:11;45.1;;;36.4;;
62457;SDS011;48509;52.122;5.250;2023-03-19T07:21:49;46.4;;;35.0;;
62457;SDS011;48509;52.122;5.250;2023-03-19T07:23:26;44.6;;;35.4;;
62457;SDS011;48509;52.122;5.250;2023-03-19T07:26:39;44.1;;;35.4;;
62457;SDS011;48509;52.122;5.250;2023-03-19T07:28:16;49.6;;;39.4;;
62457;SDS011;48509;52.122;5.250;2023-03-19T07:29:53;42.9;;;35.1;;
62457;SDS011;48509;52.122;5.250;2023-03-19T07:33:06;57.4;;;42.0;;
62457;SDS011;48509;52.122;5.250;2023-03-19T07:34:43;58.3;;;43.5;;
62457;SDS011;48509;52.122;5.250;2023-03-19T07:36:19;49.4;;;37.9;;
62457;SDS011;48509;52.122;5.250;2023-03-19T07:37:56;48.7;;;39.31;;
62457;SDS011;48509;52.122;5.250;2023-03-19T07:41:09;42.3;;;35.21;;
62457;SDS011;48509;52.122;5.250;2023-03-19T07:42:45;46.3;;;37.31;;
62457;SDS011;48509;52.122;5.250;2023-03-19T07:44:21;45.1;;;37.31;;
62457;SDS011;48509;52.122;5.250;2023-03-19T07:47:35;57.2;;;42.4;;
62457;SDS011;48509;52.122;5.250;2023-03-19T07:49:12;57.6;;;44.4;;
62457;SDS011;48509;52.122;5.250;2023-03-19T07:50:49;62.6;;;46.8;;
62457;SDS011;48509;52.122;5.250;2023-03-19T07:54:03;55.8;;;44.8;;
62457;SDS011;48509;52.122;5.250;2023-03-19T07:55:40;51.3;;;42.1;;
62457;SDS011;48509;52.122;5.250;2023-03-19T07:57:17;53.8;;;44.1;;
62457;SDS011;48509;52.122;5.250;2023-03-19T07:58:54;53.3;;;41.7;;
62457;SDS011;48509;52.122;5.250;2023-03-19T08:02:08;43.0;;;38.0;;
62457;SDS011;48509;52.122;5.250;2023-03-19T08:05:23;48.1;;;38.4;;
62457;SDS011;48509;52.122;5.250;2023-03-19T08:08:36;39.21;;;34.9;;
62457;SDS011;48509;52.122;5.250;2023-03-19T08:10:13;46.8;;;37.71;;
62457;SDS011;48509;52.122;5.250;2023-03-19T08:11:49;44.8;;;36.4;;
62457;SDS011;48509;52.122;5.250;2023-03-19T08:15:02;41.6;;;34.1;;
62457;SDS011;48509;52.122;5.250;2023-03-19T08:16:39;45.2;;;37.1;;
62457;SDS011;48509;52.122;5.250;2023-03-19T08:18:15;47.0;;;38.81;;
62457;SDS011;48509;52.122;5.250;2023-03-19T08:19:52;41.3;;;34.5;;
62457;SDS011;48509;52.122;5.250;2023-03-19T08:23:04;42.0;;;33.6;;
62457;SDS011;48509;52.122;5.250;2023-03-19T08:24:41;39.0;;;32.21;;
62457;SDS011;48509;52.122;5.250;2023-03-19T08:26:17;38.9;;;32.4;;
62457;SDS011;48509;52.122;5.250;2023-03-19T08:29:30;41.6;;;32.6;;
62457;SDS011;48509;52.122;5.250;2023-03-19T08:31:06;44.7;;;35.6;;
62457;SDS011;48509;52.122;5.250;2023-03-19T08:32:44;38.0;;;30.3;;
62457;SDS011;48509;52.122;5.250;2023-03-19T08:34:21;43.8;;;34.81;;
62457;SDS011;48509;52.122;5.250;2023-03-19T08:37:40;41.3;;;33.5;;
62457;SDS011;48509;52.122;5.250;2023-03-19T08:39:17;39.0;;;31.9;;
62457;SDS011;48509;52.122;5.250;2023-03-19T08:40:54;33.6;;;29.8;;
62457;SDS011;48509;52.122;5.250;2023-03-19T08:44:07;37.9;;;33.1;;
62457;SDS011;48509;52.122;5.250;2023-03-19T08:45:44;40.31;;;33.6;;
62457;SDS011;48509;52.122;5.250;2023-03-19T08:47:21;39.5;;;33.21;;
62457;SDS011;48509;52.122;5.250;2023-03-19T08:50:35;39.6;;;32.71;;
62457;SDS011;48509;52.122;5.250;2023-03-19T08:52:11;40.5;;;32.8;;
62457;SDS011;48509;52.122;5.250;2023-03-19T08:53:47;45.0;;;36.31;;
62457;SDS011;48509;52.122;5.250;2023-03-19T08:55:24;39.21;;;33.4;;
62457;SDS011;48509;52.122;5.250;2023-03-19T08:58:36;37.31;;;31.1;;
62457;SDS011;48509;52.122;5.250;2023-03-19T09:00:14;39.21;;;34.5;;
62457;SDS011;48509;52.122;5.250;2023-03-19T09:01:51;34.4;;;29.1;;
62457;SDS011;48509;52.122;5.250;2023-03-19T09:05:06;34.71;;;30.3;;
62457;SDS011;48509;52.122;5.250;2023-03-19T09:06:43;34.6;;;30.6;;
62457;SDS011;48509;52.122;5.250;2023-03-19T09:08:19;36.1;;;30.8;;
62457;SDS011;48509;52.122;5.250;2023-03-19T09:09:55;45.2;;;36.0;;
62457;SDS011;48509;52.122;5.250;2023-03-19T09:13:07;40.81;;;33.8;;
62457;SDS011;48509;52.122;5.250;2023-03-19T09:14:44;39.5;;;34.21;;
62457;SDS011;48509;52.122;5.250;2023-03-19T09:16:20;52.2;;;41.1;;
62457;SDS011;48509;52.122;5.250;2023-03-19T09:19:33;38.4;;;32.4;;
62457;SDS011;48509;52.122;5.250;2023-03-19T09:21:10;41.5;;;33.1;;
62457;SDS011;48509;52.122;5.250;2023-03-19T09:22:46;44.8;;;35.81;;
62457;SDS011;48509;52.122;5.250;2023-03-19T09:25:58;40.4;;;33.4;;
62457;SDS011;48509;52.122;5.250;2023-03-19T09:27:35;43.7;;;33.4;;
62457;SDS011;48509;52.122;5.250;2023-03-19T09:29:13;37.31;;;30.0;;
62457;SDS011;48509;52.122;5.250;2023-03-19T09:32:28;39.81;;;32.3;;
62457;SDS011;48509;52.122;5.250;2023-03-19T09:34:04;41.2;;;33.3;;
62457;SDS011;48509;52.122;5.250;2023-03-19T09:35:41;39.1;;;31.3;;
62457;SDS011;48509;52.122;5.250;2023-03-19T09:37:18;34.21;;;27.5;;
62457;SDS011;48509;52.122;5.250;2023-03-19T09:40:32;40.4;;;31.2;;
62457;SDS011;48509;52.122;5.250;2023-03-19T09:42:16;37.71;;;30.1;;
62457;SDS011;48509;52.122;5.250;2023-03-19T09:44:08;41.6;;;30.8;;
62457;SDS011;48509;52.122;5.250;2023-03-19T09:45:47;36.1;;;29.4;;
62457;SDS011;48509;52.122;5.250;2023-03-19T09:49:08;39.21;;;30.9;;
62457;SDS011;48509;52.122;5.250;2023-03-19T09:50:51;43.8;;;31.1;;
62457;SDS011;48509;52.122;5.250;2023-03-19T09:52:30;41.9;;;29.5;;
62457;SDS011;48509;52.122;5.250;2023-03-19T09:54:21;44.4;;;32.21;;
62457;SDS011;48509;52.122;5.250;2023-03-19T09:56:03;44.0;;;34.0;;
62457;SDS011;48509;52.122;5.250;2023-03-19T09:59:21;47.4;;;35.81;;
62457;SDS011;48509;52.122;5.250;2023-03-19T10:01:00;44.4;;;35.21;;
62457;SDS011;48509;52.122;5.250;2023-03-19T10:02:39;42.9;;;33.3;;
62457;SDS011;48509;52.122;5.250;2023-03-19T10:06:27;41.6;;;33.3;;
62457;SDS011;48509;52.122;5.250;2023-03-19T10:10:09;51.3;;;35.21;;
62457;SDS011;48509;52.122;5.250;2023-03-19T10:12:13;47.3;;;33.5;;
62457;SDS011;48509;52.122;5.250;2023-03-19T10:14:04;38.31;;;29.6;;
62457;SDS011;48509;52.122;5.250;2023-03-19T10:15:57;41.9;;;30.9;;
62457;SDS011;48509;52.122;5.250;2023-03-19T10:17:36;41.9;;;30.9;;
62457;SDS011;48509;52.122;5.250;2023-03-19T10:19:19;44.4;;;32.6;;
62457;SDS011;48509;52.122;5.250;2023-03-19T10:21:13;41.7;;;30.9;;
62457;SDS011;48509;52.122;5.250;2023-03-19T10:24:45;45.6;;;33.5;;
62457;SDS011;48509;52.122;5.250;2023-03-19T10:26:27;41.3;;;30.6;;
62457;SDS011;48509;52.122;5.250;2023-03-19T10:28:09;41.8;;;30.8;;
62457;SDS011;48509;52.122;5.250;2023-03-19T10:29:49;47.6;;;32.8;;
62457;SDS011;48509;52.122;5.250;2023-03-19T10:33:06;41.6;;;31.2;;
62457;SDS011;48509;52.122;5.250;2023-03-19T10:34:56;38.9;;;28.5;;
62457;SDS011;48509;52.122;5.250;2023-03-19T10:36:36;38.6;;;28.4;;
62457;SDS011;48509;52.122;5.250;2023-03-19T10:38:15;48.2;;;32.3;;
62457;SDS011;48509;52.122;5.250;2023-03-19T10:39:55;47.1;;;33.3;;
62457;SDS011;48509;52.122;5.250;2023-03-19T10:43:22;44.1;;;31.5;;
62457;SDS011;48509;52.122;5.250;2023-03-19T10:45:02;42.7;;;31.6;;
62457;SDS011;48509;52.122;5.250;2023-03-19T10:46:56;43.6;;;31.8;;
62457;SDS011;48509;52.122;5.250;2023-03-19T10:48:34;43.3;;;32.0;;
62457;SDS011;48509;52.122;5.250;2023-03-19T10:52:03;39.71;;;30.5;;
62457;SDS011;48509;52.122;5.250;2023-03-19T10:53:40;44.1;;;33.4;;
62457;SDS011;48509;52.122;5.250;2023-03-19T10:55:18;40.6;;;30.8;;
62457;SDS011;48509;52.122;5.250;2023-03-19T10:57:00;44.2;;;32.6;;
62457;SDS011;48509;52.122;5.250;2023-03-19T11:00:14;38.71;;;29.5;;
62457;SDS011;48509;52.122;5.250;2023-03-19T11:01:55;43.8;;;30.7;;
62457;SDS011;48509;52.122;5.250;2023-03-19T11:03:33;35.5;;;28.2;;
62457;SDS011;48509;52.122;5.250;2023-03-19T11:05:21;36.21;;;27.4;;
62457;SDS011;48509;52.122;5.250;2023-03-19T11:08:49;38.6;;;29.4;;
62457;SDS011;48509;52.122;5.250;2023-03-19T11:10:30;38.5;;;25.6;;
62457;SDS011;48509;52.122;5.250;2023-03-19T11:12:14;33.8;;;25.5;;
62457;SDS011;48509;52.122;5.250;2023-03-19T11:13:55;36.0;;;26.5;;
62457;SDS011;48509;52.122;5.250;2023-03-19T11:15:32;33.4;;;24.7;;
62457;SDS011;48509;52.122;5.250;2023-03-19T11:18:55;38.5;;;25.5;;
62457;SDS011;48509;52.122;5.250;2023-03-19T11:20:32;33.1;;;25.0;;
62457;SDS011;48509;52.122;5.250;2023-03-19T11:22:14;36.31;;;26.6;;
62457;SDS011;48509;52.122;5.250;2023-03-19T11:23:52;37.21;;;28.0;;
62457;SDS011;48509;52.122;5.250;2023-03-19T11:27:14;37.21;;;28.0;;
62457;SDS011;48509;52.122;5.250;2023-03-19T11:28:51;40.71;;;28.6;;
62457;SDS011;48509;52.122;5.250;2023-03-19T11:30:30;41.8;;;27.8;;
62457;SDS011;48509;52.122;5.250;2023-03-19T11:32:20;35.5;;;27.4;;
62457;SDS011;48509;52.122;5.250;2023-03-19T11:35:28;37.6;;;27.5;;
62457;SDS011;48509;52.122;5.250;2023-03-19T11:37:14;33.4;;;25.2;;
62457;SDS011;48509;52.122;5.250;2023-03-19T11:39:03;36.1;;;24.8;;
62457;SDS011;48509;52.122;5.250;2023-03-19T11:40:54;33.6;;;24.9;;
62457;SDS011;48509;52.122;5.250;2023-03-19T11:42:47;39.0;;;25.9;;
62457;SDS011;48509;52.122;5.250;2023-03-19T11:46:33;36.81;;;25.1;;
62457;SDS011;48509;52.122;5.250;2023-03-19T11:48:26;31.5;;;24.5;;
62457;SDS011;48509;52.122;5.250;2023-03-19T11:50:15;32.71;;;23.1;;
62457;SDS011;48509;52.122;5.250;2023-03-19T11:52:02;31.4;;;22.1;;
62457;SDS011;48509;52.122;5.250;2023-03-19T11:53:52;31.5;;;22.2;;
62457;SDS011;48509;52.122;5.250;2023-03-19T11:55:40;36.0;;;23.9;;
62457;SDS011;48509;52.122;5.250;2023-03-19T11:57:25;36.9;;;23.1;;
62457;SDS011;48509;52.122;5.250;2023-03-19T12:01:09;40.5;;;26.0;;
62457;SDS011;48509;52.122;5.250;2023-03-19T12:03:03;36.6;;;24.8;;
62457;SDS011;48509;52.122;5.250;2023-03-19T12:06:18;35.71;;;24.8;;
62457;SDS011;48509;52.122;5.250;2023-03-19T12:08:12;34.31;;;22.5;;
62457;SDS011;48509;52.122;5.250;2023-03-19T12:10:02;42.3;;;24.9;;
62457;SDS011;48509;52.122;5.250;2023-03-19T12:12:52;38.1;;;25.1;;
62457;SDS011;48509;52.122;5.250;2023-03-19T12:14:42;41.5;;;26.2;;
62457;SDS011;48509;52.122;5.250;2023-03-19T12:16:38;44.3;;;27.2;;
62457;SDS011;48509;52.122;5.250;2023-03-19T12:18:33;47.9;;;28.9;;
62457;SDS011;48509;52.122;5.250;2023-03-19T12:20:27;42.5;;;25.1;;
62457;SDS011;48509;52.122;5.250;2023-03-19T12:24:01;48.4;;;29.2;;
62457;SDS011;48509;52.122;5.250;2023-03-19T12:25:50;49.5;;;28.0;;
62457;SDS011;48509;52.122;5.250;2023-03-19T12:27:37;50.6;;;28.2;;
62457;SDS011;48509;52.122;5.250;2023-03-19T12:29:19;45.6;;;26.2;;
62457;SDS011;48509;52.122;5.250;2023-03-19T12:31:40;45.7;;;25.8;;
62457;SDS011;48509;52.122;5.250;2023-03-19T12:34:38;39.21;;;24.6;;
62457;SDS011;48509;52.122;5.250;2023-03-19T12:36:22;46.3;;;25.2;;
62457;SDS011;48509;52.122;5.250;2023-03-19T12:38:05;47.9;;;26.6;;
62457;SDS011;48509;52.122;5.250;2023-03-19T12:39:51;43.7;;;25.1;;
62457;SDS011;48509;52.122;5.250;2023-03-19T12:41:41;48.5;;;27.6;;
62457;SDS011;48509;52.122;5.250;2023-03-19T12:43:23;42.1;;;24.5;;
62457;SDS011;48509;52.122;5.250;2023-03-19T12:47:00;43.3;;;24.5;;
62457;SDS011;48509;52.122;5.250;2023-03-19T12:48:43;41.0;;;24.1;;